createdAt,value
2018-09-23T00:00:34.794Z,100037.57
2018-09-23T00:03:00.768Z,100041.59
2018-09-23T00:05:26.719Z,100044.53
2018-09-23T00:07:52.677Z,100039.23
2018-09-23T00:10:18.621Z,100032.05
2018-09-23T00:12:44.582Z,100024.78
2018-09-23T00:15:10.547Z,100020.67
2018-09-23T00:17:36.587Z,100027.16
2018-09-23T00:20:02.525Z,100032.05
2018-09-23T00:22:28.484Z,100021.23
2018-09-23T00:24:54.433Z,100027.91
2018-09-23T00:27:20.372Z,100023.49
2018-09-23T00:29:46.299Z,100014.68
2018-09-23T00:32:12.248Z,100012.54
2018-09-23T00:34:38.191Z,100006.05
2018-09-23T00:37:04.135Z,100009.97
2018-09-23T00:39:30.081Z,100009.50
2018-09-23T00:41:56.033Z,100003.02
2018-09-23T00:44:21.998Z,99996.65
2018-09-23T00:46:47.956Z,99988.22
2018-09-23T00:49:13.902Z,99989.47
2018-09-23T00:51:39.848Z,99977.91
2018-09-23T00:54:05.775Z,99983.61
2018-09-23T00:56:31.749Z,99989.62
2018-09-23T00:58:57.693Z,99992.66
2018-09-23T01:01:23.652Z,99985.70
2018-09-23T01:03:49.623Z,99982.88
2018-09-23T01:06:15.569Z,99976.08
2018-09-23T01:08:41.505Z,99966.97
2018-09-23T01:11:07.498Z,99978.41
2018-09-23T01:13:33.458Z,99968.63
2018-09-23T01:15:59.419Z,99971.03
2018-09-23T01:18:25.384Z,99971.37
2018-09-23T01:20:51.348Z,99974.80
2018-09-23T01:23:17.278Z,99971.44
2018-09-23T01:25:43.224Z,99967.23
2018-09-23T01:28:09.162Z,99975.67
2018-09-23T01:30:35.108Z,99968.31
2018-09-23T01:33:01.059Z,99968.02
2018-09-23T01:35:27.043Z,99965.64
2018-09-23T01:37:52.973Z,99962.72
2018-09-23T01:40:18.952Z,99968.80
2018-09-23T01:42:44.889Z,99966.10
2018-09-23T01:45:10.834Z,99966.97
2018-09-23T01:47:36.794Z,99958.44
2018-09-23T01:50:02.757Z,99956.56
2018-09-23T01:52:28.697Z,99961.20
2018-09-23T01:54:54.637Z,99954.78
2018-09-23T01:57:20.568Z,99949.47
2018-09-23T01:59:46.536Z,99954.41
2018-09-23T02:02:12.501Z,99948.17
2018-09-23T02:04:38.468Z,99947.32
2018-09-23T02:07:04.444Z,99944.81
2018-09-23T02:09:30.376Z,99936.27
2018-09-23T02:11:56.344Z,99950.01
2018-09-23T02:14:22.312Z,99944.75
2018-09-23T02:16:48.277Z,99933.57
2018-09-23T02:19:14.264Z,99933.45
2018-09-23T02:21:40.209Z,99934.36
2018-09-23T02:24:06.165Z,99934.85
2018-09-23T02:26:32.174Z,99932.58
2018-09-23T02:28:58.096Z,99925.74
2018-09-23T02:31:24.073Z,99921.63
2018-09-23T02:33:50.026Z,99895.66
2018-09-23T02:36:15.971Z,99911.08
2018-09-23T02:38:41.900Z,99912.30
2018-09-23T02:41:07.878Z,99922.57
2018-09-23T02:43:33.848Z,99928.67
2018-09-23T02:45:59.812Z,99933.81
2018-09-23T02:48:25.789Z,99920.06
2018-09-23T02:50:51.779Z,99917.49
2018-09-23T02:53:17.735Z,99911.61
2018-09-23T02:55:43.684Z,99911.55
2018-09-23T02:58:09.636Z,99914.98
2018-09-23T03:00:35.583Z,99908.13
2018-09-23T03:03:01.508Z,99907.75
2018-09-23T03:05:27.444Z,99897.31
2018-09-23T03:07:53.419Z,99896.41
2018-09-23T03:10:19.374Z,99897.69
2018-09-23T03:12:45.338Z,99904.97
2018-09-23T03:15:11.288Z,99893.41
2018-09-23T03:17:37.226Z,99889.56
2018-09-23T03:20:03.171Z,99890.97
2018-09-23T03:22:29.126Z,99888.07
2018-09-23T03:24:55.076Z,99888.45
2018-09-23T03:27:21.045Z,99883.67
2018-09-23T03:29:47.006Z,99888.98
2018-09-23T03:32:12.946Z,99880.27
2018-09-23T03:34:38.878Z,99875.11
2018-09-23T03:37:04.807Z,99869.02
2018-09-23T03:39:30.749Z,99864.67
2018-09-23T03:41:56.692Z,99857.70
2018-09-23T03:44:22.631Z,99863.59
2018-09-23T03:46:48.630Z,99869.45
2018-09-23T03:49:14.576Z,99861.20
2018-09-23T03:51:40.509Z,99861.91
2018-09-23T03:54:06.429Z,99849.28
2018-09-23T03:56:32.353Z,99851.53
2018-09-23T03:58:58.296Z,99847.92
2018-09-23T04:01:24.270Z,99845.55
2018-09-23T04:03:50.204Z,99849.88
2018-09-23T04:06:16.160Z,99844.74
2018-09-23T04:08:42.100Z,99841.64
2018-09-23T04:11:08.022Z,99843.16
2018-09-23T04:13:33.977Z,99833.61
2018-09-23T04:15:59.904Z,99837.84
2018-09-23T04:18:25.865Z,99835.55
2018-09-23T04:20:51.850Z,99829.77
2018-09-23T04:23:17.824Z,99826.16
2018-09-23T04:25:43.787Z,99839.50
2018-09-23T04:28:09.733Z,99840.91
2018-09-23T04:30:35.660Z,99836.23
2018-09-23T04:33:01.606Z,99835.58
2018-09-23T04:35:27.546Z,99835.70
2018-09-23T04:37:53.522Z,99829.64
2018-09-23T04:40:19.491Z,99823.28
2018-09-23T04:42:45.422Z,99821.14
2018-09-23T04:45:11.379Z,99819.98
2018-09-23T04:47:37.338Z,99812.28
2018-09-23T04:50:03.298Z,99814.30
2018-09-23T04:52:29.339Z,99810.69
2018-09-23T04:54:55.279Z,99816.30
2018-09-23T04:57:21.218Z,99810.91
2018-09-23T04:59:47.148Z,99801.27
2018-09-23T05:02:13.072Z,99806.53
2018-09-23T05:04:39.012Z,99810.09
2018-09-23T05:07:04.957Z,99817.67
2018-09-23T05:09:30.901Z,99806.30
2018-09-23T05:11:56.847Z,99806.37
2018-09-23T05:14:22.816Z,99815.97
2018-09-23T05:16:48.779Z,99816.63
2018-09-23T05:19:14.858Z,99808.69
2018-09-23T05:21:40.842Z,99811.19
2018-09-23T05:24:06.782Z,99812.32
2018-09-23T05:26:32.755Z,99815.27
2018-09-23T05:28:58.734Z,99806.41
2018-09-23T05:31:24.670Z,99799.48
2018-09-23T05:33:50.640Z,99810.91
2018-09-23T05:36:16.610Z,99792.41
2018-09-23T05:38:42.556Z,99789.92
2018-09-23T05:41:08.515Z,99785.10
2018-09-23T05:43:34.464Z,99789.89
2018-09-23T05:46:00.412Z,99792.99
2018-09-23T05:48:26.372Z,99795.47
2018-09-23T05:50:52.528Z,99793.28
2018-09-23T05:53:18.500Z,99794.06
2018-09-23T05:55:44.477Z,99782.29
2018-09-23T05:58:10.407Z,99786.64
2018-09-23T06:00:36.355Z,99782.48
2018-09-23T06:03:02.307Z,99778.75
2018-09-23T06:05:28.236Z,99767.27
2018-09-23T06:07:54.184Z,99759.38
2018-09-23T06:10:20.141Z,99760.44
2018-09-23T06:12:46.097Z,99758.75
2018-09-23T06:15:12.049Z,99751.58
2018-09-23T06:17:38.112Z,99740.27
2018-09-23T06:20:04.058Z,99735.16
2018-09-23T06:22:29.987Z,99734.25
2018-09-23T06:24:55.924Z,99719.48
2018-09-23T06:27:21.871Z,99711.98
2018-09-23T06:29:47.802Z,99719.36
2018-09-23T06:32:13.724Z,99719.44
2018-09-23T06:34:39.661Z,99726.95
2018-09-23T06:37:05.682Z,99725.30
2018-09-23T06:39:31.611Z,99740.14
2018-09-23T06:41:57.550Z,99741.59
2018-09-23T06:44:23.505Z,99736.97
2018-09-23T06:46:49.469Z,99740.05
2018-09-23T06:49:15.408Z,99734.53
2018-09-23T06:51:41.330Z,99733.95
2018-09-23T06:54:07.284Z,99732.23
2018-09-23T06:56:33.242Z,99716.17
2018-09-23T06:58:59.199Z,99704.20
2018-09-23T07:01:25.158Z,99707.55
2018-09-23T07:03:51.131Z,99715.77
2018-09-23T07:06:17.106Z,99710.89
2018-09-23T07:08:43.062Z,99722.62
2018-09-23T07:11:09.035Z,99720.76
2018-09-23T07:13:35.004Z,99725.46
2018-09-23T07:16:00.993Z,99729.45
2018-09-23T07:18:26.954Z,99729.49
2018-09-23T07:20:52.914Z,99742.88
2018-09-23T07:23:18.896Z,99726.92
2018-09-23T07:25:44.863Z,99728.88
2018-09-23T07:28:10.818Z,99724.97
2018-09-23T07:30:36.861Z,99724.69
2018-09-23T07:33:02.837Z,99723.83
2018-09-23T07:35:28.817Z,99722.91
2018-09-23T07:37:54.756Z,99713.27
2018-09-23T07:40:20.736Z,99714.55
2018-09-23T07:42:46.705Z,99704.05
2018-09-23T07:45:12.688Z,99701.05
2018-09-23T07:47:38.654Z,99720.20
2018-09-23T07:50:04.656Z,99723.56
2018-09-23T07:52:30.592Z,99731.89
2018-09-23T07:54:56.566Z,99735.91
2018-09-23T07:57:22.520Z,99727.03
2018-09-23T07:59:48.487Z,99702.21
2018-09-23T08:02:14.498Z,99692.61
2018-09-23T08:04:40.460Z,99679.70
2018-09-23T08:07:06.420Z,99675.42
2018-09-23T08:09:32.392Z,99675.70
2018-09-23T08:11:58.336Z,99676.59
2018-09-23T08:14:24.818Z,99681.84
2018-09-23T08:16:50.261Z,99685.19
2018-09-23T08:19:16.224Z,99697.06
2018-09-23T08:21:42.144Z,99702.68
2018-09-23T08:24:08.076Z,99720.50
2018-09-23T08:26:34.088Z,99715.98
2018-09-23T08:28:59.987Z,99706.19
2018-09-23T08:31:25.983Z,99695.92
2018-09-23T08:33:51.962Z,99691.92
2018-09-23T08:36:17.913Z,99677.92
2018-09-23T08:38:43.894Z,99673.70
2018-09-23T08:41:09.851Z,99681.63
2018-09-23T08:43:35.788Z,99686.20
2018-09-23T08:46:01.738Z,99680.28
2018-09-23T08:48:27.828Z,99670.35
2018-09-23T08:50:53.676Z,99673.86
2018-09-23T08:53:19.666Z,99678.14
2018-09-23T08:55:45.626Z,99668.98
2018-09-23T08:58:11.568Z,99659.52
2018-09-23T09:00:37.648Z,99654.78
2018-09-23T09:03:03.613Z,99640.89
2018-09-23T09:05:29.601Z,99634.17
2018-09-23T09:07:55.567Z,99637.55
2018-09-23T09:10:21.542Z,99625.38
2018-09-23T09:12:47.636Z,99624.83
2018-09-23T09:15:13.581Z,99631.91
2018-09-23T09:17:39.513Z,99634.61
2018-09-23T09:20:05.473Z,99635.65
2018-09-23T09:22:31.430Z,99634.44
2018-09-23T09:24:57.417Z,99626.16
2018-09-23T09:27:23.376Z,99625.89
2018-09-23T09:29:49.328Z,99631.16
2018-09-23T09:32:15.310Z,99624.81
2018-09-23T09:34:41.249Z,99610.11
2018-09-23T09:37:07.239Z,99614.41
2018-09-23T09:39:33.170Z,99614.84
2018-09-23T09:41:59.136Z,99612.66
2018-09-23T09:44:25.065Z,99602.64
2018-09-23T09:46:51.026Z,99605.97
2018-09-23T09:49:17.000Z,99592.76
2018-09-23T09:51:42.947Z,99586.32
2018-09-23T09:54:08.885Z,99598.80
2018-09-23T09:56:34.868Z,99591.73
2018-09-23T09:59:00.835Z,99592.17
2018-09-23T10:01:26.788Z,99572.98
2018-09-23T10:03:52.747Z,99567.77
2018-09-23T10:06:18.731Z,99566.92
2018-09-23T10:08:44.721Z,99542.42
2018-09-23T10:11:10.703Z,99544.01
2018-09-23T10:13:36.665Z,99542.17
2018-09-23T10:16:02.624Z,99555.38
2018-09-23T10:18:28.626Z,99551.00
2018-09-23T10:20:54.577Z,99543.41
2018-09-23T10:23:20.660Z,99543.57
2018-09-23T10:25:46.508Z,99544.22
2018-09-23T10:28:12.481Z,99539.66
2018-09-23T10:30:38.430Z,99534.10
2018-09-23T10:33:04.425Z,99522.42
2018-09-23T10:35:30.394Z,99519.20
2018-09-23T10:37:56.399Z,99510.84
2018-09-23T10:40:22.351Z,99509.30
2018-09-23T10:42:48.335Z,99504.34
2018-09-23T10:45:14.296Z,99498.20
2018-09-23T10:47:40.314Z,99491.06
2018-09-23T10:50:06.311Z,99486.89
2018-09-23T10:52:32.282Z,99477.94
2018-09-23T10:54:58.273Z,99475.77
2018-09-23T10:57:24.242Z,99481.30
2018-09-23T10:59:50.248Z,99470.62
2018-09-23T11:02:16.213Z,99465.98
2018-09-23T11:04:42.151Z,99463.22
2018-09-23T11:07:08.161Z,99454.93
2018-09-23T11:09:34.166Z,99408.69
2018-09-23T11:12:00.168Z,99436.19
2018-09-23T11:14:26.126Z,99417.66
2018-09-23T11:16:52.063Z,99420.11
2018-09-23T11:19:18.021Z,99422.17
2018-09-23T11:21:43.977Z,99417.88
2018-09-23T11:24:09.946Z,99398.16
2018-09-23T11:26:35.881Z,99391.87
2018-09-23T11:29:01.840Z,99388.28
2018-09-23T11:31:27.881Z,99373.80
2018-09-23T11:33:53.837Z,99366.22
2018-09-23T11:36:19.812Z,99359.14
2018-09-23T11:38:45.761Z,99364.62
2018-09-23T11:41:11.729Z,99361.72
2018-09-23T11:43:37.714Z,99332.14
2018-09-23T11:46:03.665Z,99326.31
2018-09-23T11:48:29.704Z,99324.73
2018-09-23T11:50:55.661Z,99327.01
2018-09-23T11:53:21.597Z,99313.39
2018-09-23T11:55:47.567Z,99296.01
2018-09-23T11:58:13.545Z,99281.92
2018-09-23T12:00:39.514Z,99273.69
2018-09-23T12:03:05.527Z,99263.85
2018-09-23T12:05:31.501Z,99252.27
2018-09-23T12:07:57.471Z,99244.63
2018-09-23T12:10:23.470Z,99236.42
2018-09-23T12:12:49.407Z,99235.28
2018-09-23T12:15:15.365Z,99226.24
2018-09-23T12:17:41.354Z,99213.05
2018-09-23T12:20:07.322Z,99194.20
2018-09-23T12:22:33.265Z,99187.45
2018-09-23T12:25:00.259Z,99174.69
2018-09-23T12:27:26.230Z,99164.44
2018-09-23T12:29:52.214Z,99163.74
2018-09-23T12:32:18.174Z,99149.22
2018-09-23T12:34:44.147Z,99138.98
2018-09-23T12:37:10.120Z,99123.53
2018-09-23T12:39:36.063Z,99116.61
2018-09-23T12:42:02.045Z,99110.83
2018-09-23T12:44:28.045Z,99088.74
2018-09-23T12:46:54.007Z,99072.53
2018-09-23T12:49:19.960Z,99064.00
2018-09-23T12:51:45.921Z,99061.20
2018-09-23T12:54:11.865Z,99045.29
2018-09-23T12:56:37.817Z,99027.20
2018-09-23T12:59:03.896Z,99021.59
2018-09-23T13:01:29.988Z,99009.16
2018-09-23T13:03:55.924Z,98984.92
2018-09-23T13:06:21.878Z,98969.01
2018-09-23T13:08:47.814Z,98955.86
2018-09-23T13:11:13.763Z,98943.88
2018-09-23T13:13:39.739Z,98929.29
2018-09-23T13:16:05.709Z,98920.92
2018-09-23T13:18:31.698Z,98904.29
2018-09-23T13:20:57.658Z,98895.67
2018-09-23T13:23:23.780Z,98887.91
2018-09-23T13:25:49.734Z,98871.48
2018-09-23T13:28:15.688Z,98865.44
2018-09-23T13:30:41.649Z,98874.88
2018-09-23T13:33:07.610Z,98861.34
2018-09-23T13:35:33.590Z,98849.75
2018-09-23T13:37:59.547Z,98831.95
2018-09-23T13:40:25.497Z,98807.16
2018-09-23T13:42:51.452Z,98796.80
2018-09-23T13:45:18.547Z,98759.37
2018-09-23T13:47:44.579Z,98757.92
2018-09-23T13:50:10.584Z,98743.73
2018-09-23T13:52:36.556Z,98744.17
2018-09-23T13:55:02.532Z,98736.75
2018-09-23T13:57:28.465Z,98738.02
2018-09-23T13:59:54.415Z,98717.69
2018-09-23T14:02:20.423Z,98720.93
2018-09-23T14:04:46.361Z,98701.28
2018-09-23T14:07:12.296Z,98687.44
2018-09-23T14:09:38.251Z,98682.61
2018-09-23T14:12:04.249Z,98662.50
2018-09-23T14:14:30.190Z,98651.81
2018-09-23T14:16:56.156Z,98649.52
2018-09-23T14:19:22.137Z,98632.78
2018-09-23T14:21:48.104Z,98626.64
2018-09-23T14:24:14.353Z,98608.91
2018-09-23T14:26:40.318Z,98591.25
2018-09-23T14:29:06.353Z,98581.79
2018-09-23T14:31:32.268Z,98572.32
2018-09-23T14:33:58.202Z,98556.08
2018-09-23T14:36:24.262Z,98540.27
2018-09-23T14:38:50.147Z,98548.75
2018-09-23T14:41:16.120Z,98540.23
2018-09-23T14:43:42.063Z,98506.22
2018-09-23T14:46:08.001Z,98500.25
2018-09-23T14:48:33.965Z,98475.75
2018-09-23T14:51:00.002Z,98476.14
2018-09-23T14:53:25.982Z,98452.85
2018-09-23T14:55:52.042Z,98417.88
2018-09-23T14:58:18.016Z,98430.81
2018-09-23T15:00:44.099Z,98432.13
2018-09-23T15:03:10.054Z,98419.70
2018-09-23T15:05:36.041Z,98409.86
2018-09-23T15:08:02.042Z,98409.69
2018-09-23T15:10:28.040Z,98410.97
2018-09-23T15:12:54.040Z,98419.81
2018-09-23T15:15:20.044Z,98428.39
2018-09-23T15:17:46.029Z,98410.44
2018-09-23T15:20:12.010Z,98399.63
2018-09-23T15:22:37.973Z,98381.50
2018-09-23T15:25:03.982Z,98378.94
2018-09-23T15:27:31.116Z,98368.74
2018-09-23T15:29:57.151Z,98338.59
2018-09-23T15:32:24.123Z,98334.01
2018-09-23T15:34:50.123Z,98334.20
2018-09-23T15:37:16.150Z,98310.31
2018-09-23T15:39:42.097Z,98307.30
2018-09-23T15:42:08.058Z,98302.13
2018-09-23T15:44:34.017Z,98268.92
2018-09-23T15:47:00.055Z,98255.75
2018-09-23T15:49:26.097Z,98269.95
2018-09-23T15:51:52.070Z,98223.27
2018-09-23T15:54:18.004Z,98205.31
2018-09-23T15:56:43.940Z,98224.06
2018-09-23T15:59:09.944Z,98224.55
2018-09-23T16:01:35.889Z,98207.20
2018-09-23T16:04:03.871Z,98222.44
2018-09-23T16:06:29.872Z,98234.34
2018-09-23T16:08:55.891Z,98309.24
2018-09-23T16:11:21.840Z,98314.12
2018-09-23T16:13:47.848Z,98274.25
2018-09-23T16:16:13.871Z,98234.23
2018-09-23T16:18:40.069Z,98214.15
2018-09-23T16:21:05.900Z,98209.09
2018-09-23T16:23:31.851Z,98267.28
2018-09-23T16:25:57.906Z,98284.77
2018-09-23T16:28:23.897Z,98262.41
2018-09-23T16:30:49.861Z,98226.93
2018-09-23T16:33:15.822Z,98232.42
2018-09-23T16:35:41.812Z,98275.30
2018-09-23T16:38:07.758Z,98365.52
2018-09-23T16:40:33.816Z,98339.91
2018-09-23T16:42:59.767Z,98275.65
2018-09-23T16:45:25.705Z,98254.84
2018-09-23T16:47:51.690Z,98241.58
2018-09-23T16:50:17.674Z,98174.19
2018-09-23T16:52:43.745Z,98073.54
2018-09-23T16:55:09.791Z,98205.55
2018-09-23T16:57:35.819Z,98235.19
2018-09-23T17:00:01.796Z,98248.44
2018-09-23T17:02:27.810Z,98262.25
2018-09-23T17:04:53.837Z,98263.53
2018-09-23T17:07:19.857Z,98234.78
2018-09-23T17:09:45.749Z,98228.56
2018-09-23T17:12:11.725Z,98222.92
2018-09-23T17:14:37.687Z,98229.05
2018-09-23T17:17:03.654Z,98227.33
2018-09-23T17:19:29.607Z,98256.41
2018-09-23T17:21:55.581Z,98287.53
2018-09-23T17:24:21.539Z,98287.60
2018-09-23T17:26:47.538Z,98303.53
2018-09-23T17:29:13.493Z,98238.98
2018-09-23T17:31:39.470Z,98217.69
2018-09-23T17:34:05.436Z,98167.52
2018-09-23T17:36:31.455Z,98117.48
2018-09-23T17:38:58.522Z,98125.22
2018-09-23T17:41:24.503Z,98096.91
2018-09-23T17:43:50.457Z,98129.06
2018-09-23T17:46:16.480Z,98131.44
2018-09-23T17:48:42.559Z,98136.73
2018-09-23T17:51:08.500Z,98155.46
2018-09-23T17:53:34.477Z,98172.49
2018-09-23T17:56:00.448Z,98186.53
2018-09-23T17:58:26.451Z,98225.73
2018-09-23T18:00:52.463Z,98295.41
2018-09-23T18:03:18.431Z,98367.18
2018-09-23T18:05:45.502Z,98388.87
2018-09-23T18:08:11.518Z,98380.37
2018-09-23T18:10:37.520Z,98338.45
2018-09-23T18:13:03.555Z,98314.25
2018-09-23T18:15:29.571Z,98353.20
2018-09-23T18:17:55.556Z,98391.09
2018-09-23T18:20:21.512Z,98400.99
2018-09-23T18:22:47.823Z,98401.84
2018-09-23T18:25:14.035Z,98414.42
2018-09-23T18:27:40.021Z,98408.11
2018-09-23T18:30:05.992Z,98442.88
2018-09-23T18:32:31.949Z,98450.05
2018-09-23T18:34:57.902Z,98452.32
2018-09-23T18:37:24.003Z,98468.77
2018-09-23T18:39:50.029Z,98476.05
2018-09-23T18:42:16.153Z,98482.55
2018-09-23T18:44:42.131Z,98496.33
2018-09-23T18:47:08.317Z,98464.81
2018-09-23T18:49:34.500Z,98477.05
2018-09-23T18:52:00.610Z,98495.53
2018-09-23T18:54:26.616Z,98525.75
2018-09-23T18:56:52.664Z,98540.56
2018-09-23T18:59:18.688Z,98530.66
2018-09-23T19:01:44.675Z,98531.05
2018-09-23T19:04:11.775Z,98536.36
2018-09-23T19:06:37.817Z,98563.09
2018-09-23T19:09:03.836Z,98572.25
2018-09-23T19:11:29.812Z,98624.96
2018-09-23T19:13:55.829Z,98673.08
2018-09-23T19:16:21.833Z,98699.67
2018-09-23T19:18:47.931Z,98705.05
2018-09-23T19:21:13.916Z,98703.02
2018-09-23T19:23:39.897Z,98722.64
2018-09-23T19:26:06.044Z,98748.27
2018-09-23T19:28:32.116Z,98750.08
2018-09-23T19:30:58.125Z,98760.56
2018-09-23T19:33:24.195Z,98739.08
2018-09-23T19:35:50.207Z,98728.98
2018-09-23T19:38:16.346Z,98720.19
2018-09-23T19:40:42.350Z,98736.31
2018-09-23T19:43:08.460Z,98735.51
2018-09-23T19:45:34.736Z,98751.95
2018-09-23T19:48:00.746Z,98788.23
2018-09-23T19:50:26.867Z,98830.77
2018-09-23T19:52:53.079Z,98878.69
2018-09-23T19:55:19.427Z,98954.02
2018-09-23T19:57:45.540Z,98999.03
2018-09-23T20:00:11.526Z,98997.06
2018-09-23T20:02:37.522Z,99001.47
2018-09-23T20:05:03.735Z,99016.05
2018-09-23T20:07:29.805Z,98995.36
2018-09-23T20:09:55.928Z,98959.05
2018-09-23T20:12:21.917Z,98925.94
2018-09-23T20:14:48.010Z,98921.90
2018-09-23T20:17:14.075Z,98950.47
2018-09-23T20:19:40.054Z,98968.77
2018-09-23T20:22:06.013Z,98981.70
2018-09-23T20:24:32.013Z,98993.58
2018-09-23T20:26:57.966Z,99026.58
2018-09-23T20:29:27.359Z,99113.36
2018-09-23T20:31:53.393Z,99201.19
2018-09-23T20:34:19.385Z,99194.02
2018-09-23T20:36:45.341Z,99126.08
2018-09-23T20:39:11.304Z,99108.77
2018-09-23T20:41:37.303Z,99153.92
2018-09-23T20:44:03.359Z,99189.44
2018-09-23T20:46:29.481Z,99207.09
2018-09-23T20:48:55.449Z,99225.30
2018-09-23T20:51:21.410Z,99235.84
2018-09-23T20:53:47.450Z,99225.91
2018-09-23T20:56:13.399Z,99242.05
2018-09-23T20:58:39.355Z,99239.60
2018-09-23T21:03:39.874Z,99268.02
2018-09-23T21:06:05.839Z,99313.23
2018-09-23T21:08:31.771Z,99297.92
2018-09-23T21:10:57.709Z,99309.54
2018-09-23T21:13:23.676Z,99336.38
2018-09-23T21:15:49.733Z,99345.00
2018-09-23T21:18:15.712Z,99355.16
2018-09-23T21:20:41.690Z,99362.31
2018-09-23T21:23:07.704Z,99385.95
2018-09-23T21:25:33.656Z,99395.28
2018-09-23T21:27:59.609Z,99410.87
2018-09-23T21:30:25.560Z,99414.65
2018-09-23T21:32:51.536Z,99424.19
2018-09-23T21:35:17.515Z,99426.63
2018-09-23T21:37:43.482Z,99431.95
2018-09-23T21:40:09.475Z,99450.81
2018-09-23T21:42:35.452Z,99463.69
2018-09-23T21:45:01.424Z,99470.56
2018-09-23T21:47:27.418Z,99481.67
2018-09-23T21:49:53.373Z,99480.02
2018-09-23T21:52:19.322Z,99499.13
2018-09-23T21:54:45.275Z,99494.77
2018-09-23T21:57:11.269Z,99497.33
2018-09-23T21:59:37.225Z,99511.89
2018-09-23T22:02:03.200Z,99508.11
2018-09-23T22:04:29.183Z,99538.88
2018-09-23T22:06:55.140Z,99546.70
2018-09-23T22:09:21.118Z,99558.51
2018-09-23T22:11:47.082Z,99568.68
2018-09-23T22:14:13.049Z,99563.62
2018-09-23T22:16:39.016Z,99584.01
2018-09-23T22:19:04.964Z,99592.20
2018-09-23T22:21:30.930Z,99601.61
2018-09-23T22:23:56.873Z,99613.53
2018-09-23T22:26:22.826Z,99622.47
2018-09-23T22:28:48.760Z,99632.83
2018-09-23T22:31:16.753Z,99639.55
2018-09-23T22:33:42.708Z,99642.91
2018-09-23T22:36:08.662Z,99662.44
2018-09-23T22:38:34.620Z,99661.78
2018-09-23T22:41:00.571Z,99664.34
2018-09-23T22:43:26.537Z,99668.97
2018-09-23T22:45:52.517Z,99667.78
2018-09-23T22:48:18.719Z,99668.27
2018-09-23T22:50:44.775Z,99680.23
2018-09-23T22:53:10.720Z,99678.58
2018-09-23T22:55:36.653Z,99683.59
2018-09-23T22:58:02.609Z,99688.79
2018-09-23T23:00:28.560Z,99690.45
2018-09-23T23:02:54.519Z,99707.11
2018-09-23T23:05:20.470Z,99706.02
2018-09-23T23:07:46.430Z,99713.11
2018-09-23T23:10:12.376Z,99711.84
2018-09-23T23:12:38.371Z,99713.98
2018-09-23T23:15:04.401Z,99725.09
2018-09-23T23:17:30.403Z,99730.25
2018-09-23T23:19:56.375Z,99738.58
2018-09-23T23:22:22.395Z,99739.53
2018-09-23T23:24:48.368Z,99742.08
2018-09-23T23:27:14.329Z,99745.53
2018-09-23T23:29:40.316Z,99744.81
2018-09-23T23:32:06.287Z,99757.16
2018-09-23T23:34:32.221Z,99762.55
2018-09-23T23:36:58.188Z,99781.66
2018-09-23T23:39:24.139Z,99781.31
2018-09-23T23:41:50.119Z,99780.76
2018-09-23T23:44:16.095Z,99776.03
2018-09-23T23:46:42.059Z,99787.44
2018-09-23T23:49:08.401Z,99796.00
2018-09-23T23:51:34.394Z,99807.97
2018-09-23T23:54:00.359Z,99809.72
2018-09-23T23:56:26.305Z,99813.16
2018-09-23T23:58:52.285Z,99824.58
